Time;durP1;ratioP1;P1;durP2;ratioP2;P2;SDS_P1;SDS_P2;PMS_P1;PMS_P2;Temp;Humidity;BMP_temperature;BMP_pressure;BME280_temperature;BME280_humidity;BME280_pressure;Samples;Min_cycle;Max_cycle;Signal;HPM_P1;HPM_P2
2022/08/15 00:01:57;;;;;;;11.43;8.80;;;;;;;23.62;54.33;99238.28;5044407;28;20545;-77
2022/08/15 00:04:24;;;;;;;9.30;8.33;;;;;;;23.56;54.84;99237.41;5058406;28;20539;-78
2022/08/15 00:06:50;;;;;;;10.00;9.00;;;;;;;23.62;54.32;99239.09;5063915;28;20477;-78
2022/08/15 00:09:22;;;;;;;8.80;7.97;;;;;;;23.65;54.42;99233.16;5058567;28;20452;-78
2022/08/15 00:11:51;;;;;;;10.80;9.43;;;;;;;23.59;54.12;99234.19;5050559;28;20493;-78
2022/08/15 00:14:20;;;;;;;9.33;8.40;;;;;;;23.63;54.09;99234.50;5062446;28;20480;-77
2022/08/15 00:16:49;;;;;;;8.93;8.13;;;;;;;23.64;54.30;99234.25;5044290;28;20493;-78
2022/08/15 00:19:18;;;;;;;8.70;7.90;;;;;;;23.50;54.18;99241.97;5059353;28;20545;-78
2022/08/15 00:21:50;;;;;;;9.70;8.70;;;;;;;23.65;53.83;99237.78;5057502;28;20509;-77
2022/08/15 00:24:28;;;;;;;10.10;9.10;;;;;;;23.68;53.50;99229.13;5044677;28;20738;-78
2022/08/15 00:26:56;;;;;;;9.80;8.83;;;;;;;23.77;52.94;99233.03;5043062;28;20497;-78
2022/08/15 00:29:25;;;;;;;15.80;9.90;;;;;;;23.81;52.78;99228.75;5001331;28;1257794;-79
2022/08/15 00:31:53;;;;;;;9.33;8.20;;;;;;;23.80;52.52;99232.56;5062271;28;20317;-79
2022/08/15 00:34:21;;;;;;;9.40;8.50;;;;;;;23.90;51.88;99231.88;5064560;28;20449;-79
2022/08/15 00:36:50;;;;;;;9.87;8.93;;;;;;;24.03;51.81;99236.97;5056487;28;20477;-78
2022/08/15 00:39:20;;;;;;;10.03;8.57;;;;;;;23.97;52.11;99235.22;5046020;28;20465;-78
2022/08/15 00:41:48;;;;;;;11.47;8.10;;;;;;;23.99;51.65;99240.44;5064260;28;20504;-78
2022/08/15 00:44:18;;;;;;;9.50;8.20;;;;;;;23.86;52.14;99222.53;5051087;28;20458;-78
2022/08/15 00:46:48;;;;;;;9.50;8.37;;;;;;;24.15;51.79;99225.91;5062454;28;20483;-78
2022/08/15 00:49:16;;;;;;;9.97;9.07;;;;;;;24.10;51.72;99228.59;5064643;28;20492;-78
2022/08/15 00:51:46;;;;;;;9.10;8.30;;;;;;;23.96;51.49;99230.06;5054872;28;20547;-78
2022/08/15 00:54:15;;;;;;;9.80;8.90;;;;;;;24.05;52.24;99232.06;5044751;28;20462;-77
2022/08/15 00:56:47;;;;;;;9.07;8.27;;;;;;;24.24;50.67;99229.84;5063091;28;20473;-78
2022/08/15 00:59:15;;;;;;;9.40;8.50;;;;;;;24.31;51.00;99240.56;5049523;28;20557;-76
2022/08/15 01:01:43;;;;;;;8.90;8.10;;;;;;;24.17;51.41;99234.66;5044829;28;20531;-77
2022/08/15 01:04:11;;;;;;;8.87;8.07;;;;;;;24.18;51.12;99232.75;5044537;28;20465;-77
2022/08/15 01:06:38;;;;;;;8.70;7.90;;;;;;;24.22;50.58;99229.28;5058421;28;20508;-78
2022/08/15 01:09:06;;;;;;;7.80;7.00;;;;;;;24.22;50.53;99217.53;5064416;28;20429;-78
2022/08/15 01:11:37;;;;;;;7.70;7.00;;;;;;;24.25;50.83;99220.56;5059570;28;20514;-78
2022/08/15 01:14:07;;;;;;;8.37;7.57;;;;;;;24.18;51.10;99211.75;5063954;28;20452;-77
2022/08/15 01:16:38;;;;;;;13.03;8.13;;;;;;;24.23;50.87;99210.97;5060170;28;20512;-78
2022/08/15 01:19:09;;;;;;;7.80;7.10;;;;;;;24.13;50.69;99210.84;5044400;28;20560;-78
2022/08/15 01:21:39;;;;;;;8.63;7.70;;;;;;;24.19;50.60;99212.56;5045633;28;20504;-78
2022/08/15 01:24:13;;;;;;;7.33;6.63;;;;;;;24.27;49.71;99214.00;5064463;28;20444;-78
2022/08/15 01:26:42;;;;;;;7.53;6.70;;;;;;;24.30;49.82;99208.84;5043501;28;20511;-79
2022/08/15 01:29:08;;;;;;;9.23;6.70;;;;;;;24.33;49.79;99215.72;5051483;28;20504;-78
2022/08/15 01:31:36;;;;;;;8.40;7.53;;;;;;;24.32;50.81;99214.06;5061983;28;20464;-76
2022/08/15 01:34:03;;;;;;;7.37;6.77;;;;;;;24.31;49.99;99207.78;5064160;28;20434;-76
2022/08/15 01:36:31;;;;;;;7.03;6.43;;;;;;;24.37;49.20;99212.25;5058763;28;20477;-77
2022/08/15 01:39:03;;;;;;;7.93;7.13;;;;;;;24.22;50.46;99215.63;5044965;28;20466;-77
2022/08/15 01:41:33;;;;;;;8.77;6.57;;;;;;;24.26;49.69;99207.72;5048669;28;20477;-76
2022/08/15 01:44:09;;;;;;;6.87;6.20;;;;;;;24.37;49.34;99219.59;5059114;28;20452;-76
2022/08/15 01:46:39;;;;;;;6.67;6.07;;;;;;;24.24;50.77;99216.19;5062822;28;20530;-76
2022/08/15 01:49:13;;;;;;;6.80;6.17;;;;;;;24.23;50.83;99216.44;5045247;28;20754;-76
2022/08/15 01:51:40;;;;;;;6.73;6.13;;;;;;;24.16;50.44;99202.16;5043393;28;20481;-77
2022/08/15 01:54:08;;;;;;;6.67;6.00;;;;;;;24.03;53.28;99198.75;5051355;28;20463;-78
2022/08/15 01:56:38;;;;;;;7.07;6.33;;;;;;;24.00;55.04;99201.16;5062767;28;20488;-77
2022/08/15 01:59:09;;;;;;;7.63;7.00;;;;;;;23.59;56.07;99203.31;5062204;28;20571;-77
2022/08/15 02:01:40;;;;;;;7.77;7.07;;;;;;;23.50;57.52;99198.31;5057744;28;20488;-77
2022/08/15 02:04:07;;;;;;;8.30;7.47;;;;;;;23.41;55.35;99204.44;5043367;28;20492;-78
2022/08/15 02:06:35;;;;;;;7.27;6.63;;;;;;;23.30;55.88;99179.75;5054091;28;20516;-77
2022/08/15 02:09:02;;;;;;;7.70;7.00;;;;;;;23.30;59.15;99184.38;5048251;28;20477;-78
2022/08/15 02:11:30;;;;;;;7.50;6.80;;;;;;;23.31;57.67;99177.84;5058464;28;20481;-79
2022/08/15 02:13:59;;;;;;;7.03;6.33;;;;;;;23.26;57.87;99175.88;5045878;28;20457;-78
2022/08/15 02:16:31;;;;;;;6.80;6.20;;;;;;;23.37;55.56;99176.03;5042823;28;20473;-79
2022/08/15 02:18:59;;;;;;;8.10;6.30;;;;;;;23.47;56.54;99166.06;5043236;28;20477;-81
2022/08/15 02:21:26;;;;;;;7.10;6.50;;;;;;;23.37;56.36;99165.94;5057817;28;20985;-81
2022/08/15 02:23:53;;;;;;;7.00;6.30;;;;;;;23.32;57.20;99157.69;5062230;28;20441;-79
2022/08/15 02:26:19;;;;;;;8.30;7.10;;;;;;;23.29;58.31;99158.16;5045594;28;20481;-79
2022/08/15 02:28:46;;;;;;;7.17;5.73;;;;;;;23.35;56.82;99151.72;5053453;28;20540;-79
2022/08/15 02:31:16;;;;;;;6.63;6.03;;;;;;;23.24;57.05;99149.91;5042389;28;21036;-79
2022/08/15 02:33:47;;;;;;;7.60;6.90;;;;;;;23.34;56.67;99151.97;5043354;28;20442;-78
2022/08/15 02:36:16;;;;;;;7.53;6.70;;;;;;;23.40;55.10;99149.06;5042631;28;20466;-79
2022/08/15 02:38:44;;;;;;;7.23;6.53;;;;;;;23.45;57.10;99146.41;5042914;28;20524;-78
2022/08/15 02:41:12;;;;;;;6.00;5.50;;;;;;;23.37;55.33;99148.75;5042557;28;21053;-77
2022/08/15 02:43:43;;;;;;;6.90;6.30;;;;;;;23.41;56.29;99152.63;5062039;28;20480;-78
2022/08/15 02:46:10;;;;;;;7.53;6.80;;;;;;;23.55;55.52;99142.16;5060258;28;20464;-78
2022/08/15 02:48:37;;;;;;;6.33;5.80;;;;;;;23.59;55.54;99132.38;5060231;28;20478;-78
2022/08/15 02:51:07;;;;;;;6.63;5.80;;;;;;;23.66;55.79;99128.41;5043193;28;20477;-78
2022/08/15 02:53:34;;;;;;;6.33;5.73;;;;;;;23.59;55.73;99130.50;5044205;28;20453;-78
2022/08/15 02:56:01;;;;;;;7.00;6.40;;;;;;;23.62;55.98;99126.41;5061945;28;20472;-78
2022/08/15 02:58:28;;;;;;;6.83;6.23;;;;;;;23.51;56.22;99111.84;5061892;28;20481;-78
2022/08/15 03:00:55;;;;;;;8.53;6.40;;;;;;;23.55;55.92;99106.69;5061423;28;20492;-78
2022/08/15 03:03:21;;;;;;;7.50;6.83;;;;;;;23.35;56.24;99105.38;5055424;28;20910;-78
2022/08/15 03:05:49;;;;;;;7.03;6.37;;;;;;;23.33;56.55;99095.75;5051617;28;20498;-78
2022/08/15 03:08:17;;;;;;;7.07;6.27;;;;;;;23.39;56.48;99087.41;5057436;28;20861;-78
2022/08/15 03:10:44;;;;;;;13.00;6.67;;;;;;;23.37;57.54;99092.28;5061800;28;20477;-77
2022/08/15 03:13:13;;;;;;;7.33;6.63;;;;;;;23.29;57.85;99085.34;5061442;28;20492;-79
2022/08/15 03:15:45;;;;;;;8.70;7.20;;;;;;;23.23;58.11;99094.56;5047397;28;20481;-79
2022/08/15 03:18:12;;;;;;;8.50;7.57;;;;;;;23.11;59.92;99091.94;5058474;28;20446;-79
2022/08/15 03:20:40;;;;;;;8.43;7.00;;;;;;;22.83;61.04;99092.03;5049409;28;20503;-77
2022/08/15 03:23:08;;;;;;;7.73;7.00;;;;;;;22.98;60.29;99083.25;5051722;28;20485;-77
2022/08/15 03:25:40;;;;;;;7.80;7.10;;;;;;;23.06;60.70;99083.69;5041932;28;20466;-78
2022/08/15 03:28:08;;;;;;;7.30;6.70;;;;;;;23.08;61.08;99091.63;5057479;28;20464;-78
2022/08/15 03:30:36;;;;;;;9.73;7.33;;;;;;;23.06;61.65;99085.59;5060179;28;20536;-78
2022/08/15 03:33:03;;;;;;;8.80;7.90;;;;;;;23.00;61.46;99075.66;5045468;28;20500;-77
2022/08/15 03:35:32;;;;;;;7.33;6.57;;;;;;;23.05;60.54;99087.47;5058629;28;20520;-78
2022/08/15 03:37:59;;;;;;;7.87;6.90;;;;;;;23.08;60.21;99078.00;5042424;28;20930;-79
2022/08/15 03:40:26;;;;;;;7.63;6.97;;;;;;;23.09;59.42;99074.19;5043064;28;20477;-79
2022/08/15 03:42:57;;;;;;;7.60;6.90;;;;;;;23.05;59.73;99083.91;5059751;28;20472;-79
2022/08/15 03:45:25;;;;;;;9.13;7.07;;;;;;;23.11;59.02;99075.59;5047513;28;20482;-78
2022/08/15 03:47:51;;;;;;;8.10;6.37;;;;;;;23.08;58.88;99072.53;5057769;28;20500;-77
2022/08/15 03:50:18;;;;;;;7.07;6.47;;;;;;;23.08;59.98;99076.09;5042891;28;20920;-77
2022/08/15 03:52:50;;;;;;;7.93;7.20;;;;;;;22.92;61.47;99074.19;5051319;28;20480;-78
2022/08/15 03:55:18;;;;;;;8.90;7.63;;;;;;;22.84;61.90;99078.16;5063396;28;20437;-78
2022/08/15 03:57:44;;;;;;;7.87;7.13;;;;;;;22.80;62.54;99073.47;5060088;28;20441;-80
2022/08/15 04:00:15;;;;;;;7.70;7.00;;;;;;;22.79;62.23;99071.81;5062227;28;20516;-80
2022/08/15 04:02:41;;;;;;;8.60;7.67;;;;;;;22.84;62.60;99067.25;5054880;28;20446;-81
2022/08/15 04:05:08;;;;;;;7.97;7.27;;;;;;;22.91;61.65;99069.81;5052498;28;20468;-77
2022/08/15 04:07:36;;;;;;;8.00;7.20;;;;;;;22.86;62.60;99073.31;5046651;28;20480;-77
2022/08/15 04:10:04;;;;;;;8.60;7.50;;;;;;;22.96;62.31;99074.53;5049122;28;20933;-78
2022/08/15 04:12:34;;;;;;;8.50;7.70;;;;;;;23.02;61.78;99071.63;5063932;28;20555;-76
2022/08/15 04:15:01;;;;;;;8.63;7.30;;;;;;;23.00;61.47;99068.31;5065087;28;20546;-78
2022/08/15 04:17:29;;;;;;;8.90;8.00;;;;;;;23.08;61.29;99072.53;5060181;28;20490;-76
2022/08/15 04:19:56;;;;;;;8.80;8.00;;;;;;;22.87;61.02;99071.41;5054700;28;20480;-76
2022/08/15 04:22:29;;;;;;;8.50;7.60;;;;;;;22.96;61.22;99082.69;5052438;28;20508;-76
2022/08/15 04:25:00;;;;;;;9.20;8.30;;;;;;;22.86;62.70;99094.25;5054349;28;20540;-75
2022/08/15 04:27:26;;;;;;;9.13;8.23;;;;;;;22.76;63.43;99092.22;5057433;28;20562;-75
2022/08/15 04:29:53;;;;;;;8.60;7.70;;;;;;;22.86;63.12;99094.25;5046398;28;20482;-77
2022/08/15 04:32:20;;;;;;;9.60;8.80;;;;;;;22.82;63.42;99098.56;5060184;28;20498;-73
2022/08/15 04:34:49;;;;;;;13.90;8.97;;;;;;;22.88;63.28;99097.56;5052952;28;20507;-84
2022/08/15 04:37:16;;;;;;;8.77;7.87;;;;;;;22.97;63.46;99084.31;5055588;28;20489;-84
2022/08/15 04:39:42;;;;;;;9.93;8.93;;;;;;;22.92;63.03;99107.72;5062815;28;20507;-83
2022/08/15 04:42:09;;;;;;;9.27;8.40;;;;;;;23.07;61.40;99103.59;5059230;28;20471;-84
2022/08/15 04:44:37;;;;;;;11.23;8.83;;;;;;;23.03;62.06;99102.41;5061792;28;20454;-83
2022/08/15 04:47:04;;;;;;;9.63;8.83;;;;;;;22.94;62.56;99107.47;5059713;28;20500;-84
2022/08/15 04:49:30;;;;;;;9.97;8.97;;;;;;;22.83;63.07;99095.59;5063191;28;20472;-84
2022/08/15 04:52:08;;;;;;;10.10;8.87;;;;;;;22.86;61.65;99095.09;5044058;28;20560;-84
2022/08/15 04:54:35;;;;;;;9.20;8.30;;;;;;;22.90;61.48;99098.16;5046851;28;20449;-84
2022/08/15 04:57:01;;;;;;;13.60;11.90;;;;;;;22.93;61.91;99103.94;5064298;28;20517;-83
2022/08/15 04:59:28;;;;;;;13.43;10.27;;;;;;;22.90;61.83;99100.88;5051931;28;20543;-84
2022/08/15 05:01:56;;;;;;;9.57;8.57;;;;;;;22.96;60.78;99105.31;5045181;28;20509;-84
2022/08/15 05:04:23;;;;;;;9.30;8.40;;;;;;;22.97;61.24;99111.59;5045750;28;20465;-85
2022/08/15 05:06:49;;;;;;;9.10;8.30;;;;;;;23.09;60.28;99102.28;5050337;28;20493;-84
2022/08/15 05:09:17;;;;;;;13.00;11.17;;;;;;;22.81;62.30;99105.09;5057368;28;20479;-84
2022/08/15 05:11:44;;;;;;;11.17;9.97;;;;;;;22.69;62.84;99108.75;5051822;28;20568;-84
2022/08/15 05:14:11;;;;;;;15.57;11.40;;;;;;;22.79;63.35;99115.41;5054635;28;20502;-83
2022/08/15 05:16:37;;;;;;;10.47;9.57;;;;;;;22.94;62.30;99110.19;5054034;28;20517;-83
2022/08/15 05:19:04;;;;;;;10.40;8.33;;;;;;;22.89;60.87;99105.50;5054140;28;20509;-84
2022/08/15 05:21:31;;;;;;;11.10;9.87;;;;;;;23.15;61.21;99097.72;5052848;28;20474;-84
2022/08/15 05:23:58;;;;;;;9.97;9.07;;;;;;;23.33;61.12;99104.75;5046663;28;20438;-85
2022/08/15 05:26:26;;;;;;;10.90;9.90;;;;;;;23.42;60.52;99105.19;5047831;28;20530;-85
2022/08/15 05:28:52;;;;;;;11.13;8.20;;;;;;;23.52;59.49;99104.47;5056361;28;20543;-78
2022/08/15 05:31:19;;;;;;;11.17;10.07;;;;;;;23.57;60.51;99102.63;5053317;28;20881;-77
2022/08/15 05:33:47;;;;;;;9.60;8.70;;;;;;;23.67;59.89;99110.13;5057200;28;20518;-77
2022/08/15 05:36:14;;;;;;;9.43;8.63;;;;;;;23.69;60.28;99099.75;5061965;28;20481;-77
2022/08/15 05:38:46;;;;;;;10.00;9.00;;;;;;;23.72;60.44;99104.72;5052985;28;20426;-77
2022/08/15 05:41:20;;;;;;;10.20;8.97;;;;;;;23.76;60.75;99097.66;5052527;28;20489;-77
2022/08/15 05:43:55;;;;;;;10.80;9.80;;;;;;;23.57;60.08;99108.06;5057588;28;20489;-76
2022/08/15 05:46:25;;;;;;;10.00;9.10;;;;;;;23.43;60.69;99104.09;5046078;28;20480;-78
2022/08/15 05:48:56;;;;;;;9.40;8.50;;;;;;;23.76;60.14;99105.03;5044117;28;20828;-77
2022/08/15 05:51:30;;;;;;;9.37;8.47;;;;;;;23.90;59.70;99109.03;5043382;28;20469;-77
2022/08/15 05:54:05;;;;;;;9.03;8.23;;;;;;;23.87;60.01;99115.03;5042513;28;20931;-76
2022/08/15 05:56:40;;;;;;;9.47;8.60;;;;;;;23.99;59.01;99110.25;5042922;28;21095;-77
2022/08/15 05:59:11;;;;;;;10.43;9.43;;;;;;;23.91;59.84;99107.97;5057387;28;20448;-77
2022/08/15 06:01:40;;;;;;;10.07;9.17;;;;;;;23.82;60.37;99110.31;5062809;28;20502;-77
2022/08/15 06:04:11;;;;;;;10.53;9.50;;;;;;;23.76;60.00;99118.66;5061683;28;20464;-76
2022/08/15 06:06:41;;;;;;;9.50;8.70;;;;;;;23.69;60.25;99118.88;5057381;28;20477;-77
2022/08/15 06:09:35;;;;;;;9.07;8.37;;;;;;;24.20;58.11;99132.28;5062437;28;20529;-77
2022/08/15 06:12:09;;;;;;;9.77;8.87;;;;;;;24.68;56.79;99125.09;5062010;28;20499;-77
2022/08/15 06:14:40;;;;;;;9.80;9.00;;;;;;;25.08;55.61;99133.88;5061390;28;20448;-77
2022/08/15 06:17:10;;;;;;;9.77;8.90;;;;;;;26.23;51.80;99123.97;5061160;28;20617;-77
2022/08/15 06:19:42;;;;;;;9.27;8.47;;;;;;;28.60;45.34;99129.69;5061392;28;20479;-77
2022/08/15 06:22:24;;;;;;;9.27;8.47;;;;;;;29.52;43.26;99127.97;5060671;28;20500;-77
2022/08/15 06:25:03;;;;;;;12.47;8.53;;;;;;;30.81;39.82;99119.50;5050395;28;20441;-77
2022/08/15 06:28:01;;;;;;;7.93;7.23;;;;;;;31.74;38.35;99113.09;5060840;28;20477;-77
2022/08/15 06:30:34;;;;;;;7.70;6.60;;;;;;;32.12;37.67;99115.59;5059918;28;20476;-81
2022/08/15 06:33:06;;;;;;;7.77;7.10;;;;;;;32.96;35.86;99114.09;5047963;28;20450;-83
2022/08/15 06:35:41;;;;;;;7.40;6.63;;;;;;;32.35;35.81;99108.13;5041222;28;20461;-83
2022/08/15 06:38:19;;;;;;;8.10;6.73;;;;;;;31.53;37.48;99110.75;5059626;28;20445;-82
2022/08/15 06:40:50;;;;;;;8.73;7.90;;;;;;;31.92;37.68;99114.06;5061268;28;20535;-85
2022/08/15 06:43:17;;;;;;;8.97;8.07;;;;;;;31.80;37.28;99114.59;5061164;28;20521;-83
2022/08/15 06:45:49;;;;;;;7.37;6.67;;;;;;;31.29;38.50;99112.88;5061991;28;20497;-82
2022/08/15 06:48:18;;;;;;;7.40;6.80;;;;;;;31.29;38.40;99118.41;5062512;28;20438;-83
2022/08/15 06:50:49;;;;;;;9.23;7.20;;;;;;;31.91;37.54;99115.22;5061541;28;20473;-82
2022/08/15 06:53:19;;;;;;;8.60;7.17;;;;;;;32.80;36.28;99123.94;5062441;28;20450;-83
2022/08/15 06:55:53;;;;;;;7.50;6.80;;;;;;;34.38;33.32;99120.56;5061648;28;20493;-83
2022/08/15 06:58:27;;;;;;;9.37;6.60;;;;;;;33.64;33.68;99122.22;5061481;28;20533;-85
2022/08/15 07:01:19;;;;;;;7.17;6.57;;;;;;;34.67;30.97;99113.53;5061852;28;20660;-86
2022/08/15 07:03:50;;;;;;;6.83;6.20;;;;;;;34.86;30.61;99111.22;5060694;28;20488;-84
2022/08/15 07:06:20;;;;;;;7.53;6.83;;;;;;;35.41;29.18;99105.97;5061453;28;20477;-83
2022/08/15 07:08:53;;;;;;;7.23;6.43;;;;;;;34.41;30.48;99113.53;5062560;28;20438;-85
2022/08/15 07:11:23;;;;;;;7.10;6.50;;;;;;;34.67;30.29;99108.78;5060807;28;20540;-84
2022/08/15 07:13:59;;;;;;;7.07;6.37;;;;;;;34.67;29.98;99100.44;5060213;28;20482;-82
2022/08/15 07:16:31;;;;;;;6.90;6.40;;;;;;;34.32;28.48;99100.50;5061533;28;20636;-82
2022/08/15 07:18:59;;;;;;;6.30;5.80;;;;;;;34.42;28.88;99095.75;5065896;28;20999;-85
2022/08/15 07:21:26;;;;;;;6.63;6.03;;;;;;;33.81;29.60;99096.50;5060596;28;20474;-84
2022/08/15 07:24:03;;;;;;;6.83;6.23;;;;;;;33.88;29.86;99096.84;5062335;28;20481;-83
2022/08/15 07:26:32;;;;;;;8.20;6.23;;;;;;;34.14;29.27;99096.06;5060475;28;20488;-84
2022/08/15 07:29:00;;;;;;;6.27;5.67;;;;;;;36.03;26.31;99100.88;5061532;28;20512;-85
2022/08/15 07:31:32;;;;;;;6.60;6.00;;;;;;;35.21;27.25;99101.97;5065893;28;20467;-85
2022/08/15 07:34:05;;;;;;;6.20;5.60;;;;;;;34.89;28.31;99109.72;5066568;28;20461;-85
2022/08/15 07:36:35;;;;;;;7.53;6.57;;;;;;;34.59;27.60;99111.56;5064984;28;20584;-82
2022/08/15 07:39:20;;;;;;;6.70;6.07;;;;;;;33.42;30.09;99114.00;5067988;28;20449;-86
2022/08/15 07:41:47;;;;;;;7.87;7.17;;;;;;;33.99;28.96;99113.16;5064143;28;20511;-85
2022/08/15 07:44:19;;;;;;;6.50;5.90;;;;;;;32.81;30.10;99118.09;5065522;28;20460;-83
2022/08/15 07:46:56;;;;;;;8.20;5.60;;;;;;;32.58;30.95;99125.53;5065013;28;20473;-86
2022/08/15 07:49:25;;;;;;;8.33;5.63;;;;;;;31.24;33.00;99124.03;5064937;28;20452;-80
2022/08/15 07:52:00;;;;;;;5.90;5.30;;;;;;;30.59;34.32;99123.75;5064912;28;20473;-82
2022/08/15 07:54:29;;;;;;;7.03;6.30;;;;;;;29.90;34.79;99128.06;5065335;28;20439;-83
2022/08/15 07:56:59;;;;;;;6.20;5.60;;;;;;;30.29;35.21;99133.28;5064259;28;20519;-84
2022/08/15 07:59:27;;;;;;;7.40;6.80;;;;;;;29.75;36.34;99132.63;5064950;28;20453;-83
2022/08/15 08:02:05;;;;;;;7.50;6.80;;;;;;;29.21;38.18;99136.56;5064651;28;20467;-84
2022/08/15 08:04:33;;;;;;;7.70;7.00;;;;;;;29.77;37.62;99135.13;5064731;28;20441;-81
2022/08/15 08:07:05;;;;;;;7.30;6.47;;;;;;;31.14;35.40;99136.91;5064851;28;20499;-82
2022/08/15 08:09:35;;;;;;;7.67;6.87;;;;;;;30.54;35.09;99129.34;5062528;28;20539;-82
2022/08/15 08:12:11;;;;;;;7.00;6.30;;;;;;;29.87;36.19;99143.25;5062455;28;20468;-81
2022/08/15 08:14:46;;;;;;;7.60;6.57;;;;;;;29.78;36.74;99139.53;5064240;28;20995;-82
2022/08/15 08:17:17;;;;;;;7.70;6.67;;;;;;;30.39;36.32;99144.19;5061829;28;20526;-84
2022/08/15 08:19:56;;;;;;;7.50;6.37;;;;;;;30.81;35.77;99138.81;5044917;28;20437;-84
2022/08/15 08:22:28;;;;;;;6.20;5.60;;;;;;;31.62;34.13;99141.25;5044328;28;20488;-83
2022/08/15 08:25:00;;;;;;;6.40;5.80;;;;;;;30.79;35.74;99138.31;5048142;28;20433;-84
2022/08/15 08:27:37;;;;;;;7.00;6.30;;;;;;;30.30;36.40;99140.44;5062572;28;20483;-84
2022/08/15 08:30:07;;;;;;;7.43;6.10;;;;;;;30.21;36.85;99129.28;5063940;28;20531;-85
2022/08/15 08:32:42;;;;;;;7.00;6.30;;;;;;;31.17;34.39;99128.00;5063524;28;20528;-84
2022/08/15 08:35:15;;;;;;;6.90;5.20;;;;;;;32.30;33.38;99138.69;5064089;28;20429;-83
2022/08/15 08:37:48;;;;;;;6.70;6.00;;;;;;;32.00;33.12;99124.41;5064998;28;20441;-84
2022/08/15 08:43:17;;;;;;;7.20;5.07;;;;;;;32.43;32.97;99137.00;5064243;28;20472;-81
2022/08/15 08:45:49;;;;;;;6.23;5.60;;;;;;;32.16;32.39;99135.97;5063823;28;20477;-82
2022/08/15 08:48:30;;;;;;;6.80;5.67;;;;;;;32.63;31.37;99136.53;5064095;28;20580;-83
2022/08/15 08:51:02;;;;;;;6.27;5.77;;;;;;;33.21;30.30;99133.94;5063667;28;20477;-87
2022/08/15 08:53:36;;;;;;;7.77;5.50;;;;;;;33.19;29.85;99127.91;5064396;28;20511;-82
2022/08/15 08:56:14;;;;;;;6.60;5.90;;;;;;;32.83;30.62;99135.19;5063290;28;20604;-84
2022/08/15 08:58:45;;;;;;;8.17;6.30;;;;;;;32.87;31.29;99134.56;5064666;28;20699;-84
2022/08/15 09:01:14;;;;;;;8.77;5.93;;;;;;;34.30;29.32;99138.03;5063704;28;20473;-84
2022/08/15 09:03:47;;;;;;;8.43;5.60;;;;;;;33.82;30.10;99138.91;5049395;28;20519;-83
2022/08/15 09:06:18;;;;;;;7.80;5.90;;;;;;;36.41;26.06;99131.34;5043226;28;20517;-84
2022/08/15 09:08:51;;;;;;;5.97;5.20;;;;;;;37.74;24.11;99126.78;5044576;28;20491;-83
2022/08/15 09:11:21;;;;;;;6.70;5.20;;;;;;;36.92;25.15;99133.97;5042891;28;20521;-85
2022/08/15 09:13:49;;;;;;;7.30;5.90;;;;;;;34.83;26.69;99134.09;5054951;28;20481;-83
2022/08/15 09:16:19;;;;;;;7.70;7.10;;;;;;;33.73;28.92;99138.88;5062940;28;20479;-83
2022/08/15 09:19:00;;;;;;;9.53;7.00;;;;;;;34.19;27.88;99133.91;5063244;28;20435;-84
2022/08/15 09:21:27;;;;;;;10.03;6.30;;;;;;;34.81;27.22;99138.34;5062975;28;20505;-83
2022/08/15 09:23:56;;;;;;;6.40;5.83;;;;;;;35.82;25.93;99135.03;5064297;28;20460;-84
2022/08/15 09:26:33;;;;;;;5.90;5.40;;;;;;;35.22;27.67;99132.19;5063010;28;20543;-85
2022/08/15 09:29:06;;;;;;;7.30;5.37;;;;;;;34.74;28.33;99135.22;5062565;28;21105;-85
2022/08/15 09:31:35;;;;;;;6.70;6.00;;;;;;;34.15;27.92;99136.53;5052720;28;20491;-85
2022/08/15 09:34:16;;;;;;;7.20;6.50;;;;;;;33.68;28.22;99145.41;5042812;28;20515;-85
2022/08/15 09:36:54;;;;;;;9.10;6.30;;;;;;;32.01;31.79;99144.56;5042751;28;20500;-83
2022/08/15 09:40:05;;;;;;;6.87;5.53;;;;;;;31.87;32.43;99145.44;5048620;28;20449;-82
2022/08/15 09:42:44;;;;;;;7.47;5.90;;;;;;;31.10;34.17;99143.34;5046994;28;20474;-81
2022/08/15 09:45:21;;;;;;;7.13;6.43;;;;;;;30.94;34.07;99145.56;5061965;28;20473;-83
2022/08/15 09:48:08;;;;;;;7.07;6.23;;;;;;;30.40;33.89;99150.53;5062617;28;20472;-82
2022/08/15 09:50:44;;;;;;;7.30;6.70;;;;;;;30.33;34.30;99153.63;5062601;28;20548;-83
2022/08/15 09:53:24;;;;;;;10.53;6.37;;;;;;;30.66;34.33;99153.72;5062325;28;20547;-83
2022/08/15 09:55:52;;;;;;;6.17;5.67;;;;;;;30.81;33.59;99152.63;5061778;28;20499;-84
2022/08/15 09:58:21;;;;;;;10.80;6.40;;;;;;;30.95;33.21;99148.00;5063108;28;20492;-84
2022/08/15 10:00:58;;;;;;;7.60;6.80;;;;;;;31.35;32.46;99150.31;5062315;28;20481;-83
2022/08/15 10:03:28;;;;;;;6.57;6.00;;;;;;;30.97;32.78;99151.28;5049938;28;20865;-84
2022/08/15 10:06:13;;;;;;;6.73;6.07;;;;;;;31.36;33.40;99163.00;5041922;28;20977;-84
2022/08/15 10:09:16;;;;;;;8.83;6.03;;;;;;;32.52;31.28;99167.50;5044528;28;20587;-83
2022/08/15 10:12:11;;;;;;;7.57;5.50;;;;;;;32.33;30.50;99170.44;5039699;28;20537;-82
2022/08/15 10:14:42;;;;;;;6.67;6.03;;;;;;;32.18;30.33;99168.84;5049652;28;20465;-83
2022/08/15 10:17:27;;;;;;;6.13;5.53;;;;;;;32.43;30.66;99172.97;5061393;28;21051;-81
2022/08/15 10:19:54;;;;;;;6.00;5.40;;;;;;;31.84;31.66;99168.16;5062522;28;20429;-80
2022/08/15 10:22:41;;;;;;;6.93;5.67;;;;;;;31.72;32.18;99167.84;5062107;28;20507;-82
2022/08/15 10:25:20;;;;;;;6.60;5.87;;;;;;;30.90;33.25;99172.06;5061707;28;20459;-81
2022/08/15 10:27:55;;;;;;;9.30;6.03;;;;;;;30.51;33.83;99181.53;5061727;28;20429;-81
2022/08/15 10:30:26;;;;;;;6.70;6.00;;;;;;;29.79;35.10;99176.97;5060670;28;20495;-82
2022/08/15 10:32:53;;;;;;;8.50;5.50;;;;;;;29.79;35.35;99176.97;5059970;28;20445;-83
2022/08/15 10:35:25;;;;;;;6.73;4.77;;;;;;;29.16;36.44;99180.66;5061926;28;20433;-80
2022/08/15 10:37:56;;;;;;;7.10;4.73;;;;;;;29.34;36.98;99190.94;5062779;28;20505;-82
2022/08/15 10:40:46;;;;;;;5.57;4.43;;;;;;;29.27;37.20;99199.53;5061227;28;20445;-81
2022/08/15 10:43:24;;;;;;;5.37;4.60;;;;;;;28.43;37.65;99207.03;5061999;28;20459;-80
2022/08/15 10:45:57;;;;;;;5.90;4.80;;;;;;;28.39;37.89;99206.78;5061073;28;20892;-79
2022/08/15 10:48:32;;;;;;;6.60;4.20;;;;;;;28.14;37.84;99210.47;5061126;28;20446;-80
2022/08/15 10:51:03;;;;;;;5.53;4.57;;;;;;;27.54;38.93;99207.66;5061777;28;20975;-80
2022/08/15 10:53:40;;;;;;;6.33;4.43;;;;;;;27.45;39.54;99220.28;5062292;28;20465;-83
2022/08/15 10:56:09;;;;;;;5.33;4.40;;;;;;;26.86;39.92;99226.06;5060919;28;20579;-83
2022/08/15 10:58:36;;;;;;;9.37;4.57;;;;;;;26.82;40.35;99226.88;5062015;28;20465;-81
2022/08/15 11:01:06;;;;;;;5.47;4.00;;;;;;;26.25;41.22;99232.22;5060722;28;20500;-83
2022/08/15 11:03:40;;;;;;;7.73;4.70;;;;;;;26.00;41.79;99251.28;5050941;28;20480;-82
2022/08/15 11:06:10;;;;;;;7.17;4.23;;;;;;;25.35;45.64;99268.66;5045793;28;20530;-82
2022/08/15 11:08:46;;;;;;;13.40;5.67;;;;;;;24.12;52.85;99286.50;5056270;28;20457;-82
2022/08/15 11:11:14;;;;;;;7.13;5.90;;;;;;;23.11;58.65;99303.78;5065864;28;20526;-81
2022/08/15 11:13:43;;;;;;;12.73;6.37;;;;;;;22.56;61.86;99314.19;5066095;28;20445;-83
2022/08/15 11:16:12;;;;;;;12.67;6.90;;;;;;;22.11;63.98;99328.47;5064956;28;20468;-80
2022/08/15 11:18:45;;;;;;;13.03;7.13;;;;;;;21.92;67.45;99346.00;5065960;28;20607;-82
2022/08/15 11:21:19;;;;;;;8.37;7.10;;;;;;;21.44;71.14;99356.81;5065302;28;20534;-83
2022/08/15 11:23:54;;;;;;;14.17;8.50;;;;;;;21.08;74.65;99343.41;5065200;28;20455;-84
2022/08/15 11:26:27;;;;;;;17.57;11.03;;;;;;;21.02;79.36;99313.38;5065071;28;20475;-86
2022/08/15 11:29:17;;;;;;;24.03;13.63;;;;;;;20.90;81.28;99289.91;5065297;28;20480;-85
2022/08/15 11:31:47;;;;;;;18.10;11.20;;;;;;;20.81;82.45;99259.53;5053103;28;20496;-88
2022/08/15 11:34:26;;;;;;;15.73;11.10;;;;;;;20.66;82.74;99241.78;5045516;28;20827;-85
2022/08/15 11:36:57;;;;;;;21.93;12.20;;;;;;;20.75;82.86;99238.75;5045682;28;20496;-85
2022/08/15 11:39:28;;;;;;;9.83;8.83;;;;;;;20.68;80.52;99227.97;5065195;28;20433;-86
2022/08/15 11:41:58;;;;;;;9.17;8.03;;;;;;;21.06;79.36;99202.31;5065556;28;20511;-87
2022/08/15 11:44:26;;;;;;;8.10;7.30;;;;;;;21.20;76.92;99203.72;5065361;28;20518;-83
2022/08/15 11:46:53;;;;;;;7.83;6.67;;;;;;;21.00;76.60;99190.47;5064416;28;20476;-85
2022/08/15 11:49:30;;;;;;;8.50;7.60;;;;;;;20.88;77.94;99195.91;5046140;28;20434;-84
2022/08/15 11:52:03;;;;;;;11.20;8.50;;;;;;;20.40;79.96;99204.13;5048195;28;20495;-86
2022/08/15 11:54:31;;;;;;;11.03;8.37;;;;;;;20.53;79.95;99211.25;5065275;28;20445;-84